sensor_id;sensor_type;location;lat;lon;timestamp;P1;durP1;ratioP1;P2;durP2;ratioP2
23181;SDS011;11759;51.282;6.642;2022-12-18T00:01:12;28.27;;;11.95;;
23181;SDS011;11759;51.282;6.642;2022-12-18T00:03:47;23.40;;;11.07;;
23181;SDS011;11759;51.282;6.642;2022-12-18T00:06:14;32.67;;;12.68;;
23181;SDS011;11759;51.282;6.642;2022-12-18T00:08:41;27.67;;;13.48;;
23181;SDS011;11759;51.282;6.642;2022-12-18T00:11:16;33.72;;;13.38;;
23181;SDS011;11759;51.282;6.642;2022-12-18T00:13:44;25.35;;;11.10;;
23181;SDS011;11759;51.282;6.642;2022-12-18T00:16:15;29.75;;;11.52;;
23181;SDS011;11759;51.282;6.642;2022-12-18T00:18:42;33.38;;;13.98;;
23181;SDS011;11759;51.282;6.642;2022-12-18T00:21:12;35.75;;;13.35;;
23181;SDS011;11759;51.282;6.642;2022-12-18T00:23:40;28.00;;;12.82;;
23181;SDS011;11759;51.282;6.642;2022-12-18T00:26:15;33.97;;;13.98;;
23181;SDS011;11759;51.282;6.642;2022-12-18T00:28:43;31.42;;;12.30;;
23181;SDS011;11759;51.282;6.642;2022-12-18T00:31:11;27.60;;;11.63;;
23181;SDS011;11759;51.282;6.642;2022-12-18T00:33:39;29.95;;;12.23;;
23181;SDS011;11759;51.282;6.642;2022-12-18T00:36:12;26.55;;;12.18;;
23181;SDS011;11759;51.282;6.642;2022-12-18T00:38:41;28.88;;;12.55;;
23181;SDS011;11759;51.282;6.642;2022-12-18T00:41:09;31.63;;;11.63;;
23181;SDS011;11759;51.282;6.642;2022-12-18T00:43:37;23.40;;;9.90;;
23181;SDS011;11759;51.282;6.642;2022-12-18T00:46:05;27.27;;;11.93;;
23181;SDS011;11759;51.282;6.642;2022-12-18T00:48:32;30.92;;;12.65;;
23181;SDS011;11759;51.282;6.642;2022-12-18T00:50:59;27.45;;;11.63;;
23181;SDS011;11759;51.282;6.642;2022-12-18T00:53:25;30.50;;;12.30;;
23181;SDS011;11759;51.282;6.642;2022-12-18T00:55:52;25.13;;;9.77;;
23181;SDS011;11759;51.282;6.642;2022-12-18T00:58:18;26.25;;;11.00;;
23181;SDS011;11759;51.282;6.642;2022-12-18T01:00:45;28.13;;;12.35;;
23181;SDS011;11759;51.282;6.642;2022-12-18T01:03:12;30.65;;;12.20;;
23181;SDS011;11759;51.282;6.642;2022-12-18T01:05:40;25.40;;;11.38;;
23181;SDS011;11759;51.282;6.642;2022-12-18T01:08:08;29.75;;;11.95;;
23181;SDS011;11759;51.282;6.642;2022-12-18T01:10:35;34.33;;;11.50;;
23181;SDS011;11759;51.282;6.642;2022-12-18T01:13:02;30.52;;;11.68;;
23181;SDS011;11759;51.282;6.642;2022-12-18T01:15:28;28.20;;;12.30;;
23181;SDS011;11759;51.282;6.642;2022-12-18T01:17:55;30.58;;;12.05;;
23181;SDS011;11759;51.282;6.642;2022-12-18T01:20:21;30.65;;;12.00;;
23181;SDS011;11759;51.282;6.642;2022-12-18T01:22:48;29.10;;;12.18;;
23181;SDS011;11759;51.282;6.642;2022-12-18T01:25:14;29.92;;;11.85;;
23181;SDS011;11759;51.282;6.642;2022-12-18T01:27:42;30.73;;;12.70;;
23181;SDS011;11759;51.282;6.642;2022-12-18T01:30:09;27.50;;;11.23;;
23181;SDS011;11759;51.282;6.642;2022-12-18T01:32:35;25.10;;;11.65;;
23181;SDS011;11759;51.282;6.642;2022-12-18T01:35:02;19.75;;;9.90;;
23181;SDS011;11759;51.282;6.642;2022-12-18T01:37:29;31.48;;;12.73;;
23181;SDS011;11759;51.282;6.642;2022-12-18T01:39:55;27.42;;;11.18;;
23181;SDS011;11759;51.282;6.642;2022-12-18T01:42:22;33.05;;;10.93;;
23181;SDS011;11759;51.282;6.642;2022-12-18T01:47:27;28.08;;;11.95;;
23181;SDS011;11759;51.282;6.642;2022-12-18T01:50:15;24.40;;;11.25;;
23181;SDS011;11759;51.282;6.642;2022-12-18T01:52:49;29.33;;;12.20;;
23181;SDS011;11759;51.282;6.642;2022-12-18T01:55:18;23.33;;;11.32;;
23181;SDS011;11759;51.282;6.642;2022-12-18T01:57:45;27.42;;;11.18;;
23181;SDS011;11759;51.282;6.642;2022-12-18T02:00:15;26.08;;;10.23;;
23181;SDS011;11759;51.282;6.642;2022-12-18T02:02:44;32.50;;;10.95;;
23181;SDS011;11759;51.282;6.642;2022-12-18T02:05:13;27.88;;;11.45;;
23181;SDS011;11759;51.282;6.642;2022-12-18T02:18:26;27.13;;;11.43;;
23181;SDS011;11759;51.282;6.642;2022-12-18T02:20:58;34.60;;;12.77;;
23181;SDS011;11759;51.282;6.642;2022-12-18T02:23:49;26.02;;;11.95;;
23181;SDS011;11759;51.282;6.642;2022-12-18T02:26:30;32.05;;;12.55;;
23181;SDS011;11759;51.282;6.642;2022-12-18T02:29:44;18.92;;;9.82;;
23181;SDS011;11759;51.282;6.642;2022-12-18T02:31:57;21.50;;;10.80;;
23181;SDS011;11759;51.282;6.642;2022-12-18T02:34:27;19.35;;;9.20;;
23181;SDS011;11759;51.282;6.642;2022-12-18T02:36:56;23.20;;;12.02;;
23181;SDS011;11759;51.282;6.642;2022-12-18T02:39:25;34.08;;;11.80;;
23181;SDS011;11759;51.282;6.642;2022-12-18T02:42:00;34.55;;;12.82;;
23181;SDS011;11759;51.282;6.642;2022-12-18T02:44:28;29.13;;;12.95;;
23181;SDS011;11759;51.282;6.642;2022-12-18T02:46:55;25.00;;;11.02;;
23181;SDS011;11759;51.282;6.642;2022-12-18T02:49:25;32.03;;;11.82;;
23181;SDS011;11759;51.282;6.642;2022-12-18T02:52:05;30.35;;;11.63;;
23181;SDS011;11759;51.282;6.642;2022-12-18T03:00:10;26.85;;;10.88;;
23181;SDS011;11759;51.282;6.642;2022-12-18T03:02:51;22.83;;;9.88;;
23181;SDS011;11759;51.282;6.642;2022-12-18T03:05:27;23.67;;;10.35;;
23181;SDS011;11759;51.282;6.642;2022-12-18T03:08:04;23.30;;;10.95;;
23181;SDS011;11759;51.282;6.642;2022-12-18T03:10:37;22.10;;;10.48;;
23181;SDS011;11759;51.282;6.642;2022-12-18T03:13:08;30.63;;;10.88;;
23181;SDS011;11759;51.282;6.642;2022-12-18T03:15:48;26.13;;;11.07;;
23181;SDS011;11759;51.282;6.642;2022-12-18T03:18:18;25.63;;;11.30;;
23181;SDS011;11759;51.282;6.642;2022-12-18T03:20:47;26.13;;;11.35;;
23181;SDS011;11759;51.282;6.642;2022-12-18T03:25:52;25.95;;;10.60;;
23181;SDS011;11759;51.282;6.642;2022-12-18T03:28:28;28.40;;;9.52;;
23181;SDS011;11759;51.282;6.642;2022-12-18T03:31:31;22.67;;;9.55;;
23181;SDS011;11759;51.282;6.642;2022-12-18T03:34:36;32.08;;;11.45;;
23181;SDS011;11759;51.282;6.642;2022-12-18T03:37:42;24.13;;;9.68;;
23181;SDS011;11759;51.282;6.642;2022-12-18T03:40:51;29.10;;;11.02;;
23181;SDS011;11759;51.282;6.642;2022-12-18T03:47:24;28.90;;;12.52;;
23181;SDS011;11759;51.282;6.642;2022-12-18T03:53:46;19.08;;;9.82;;
23181;SDS011;11759;51.282;6.642;2022-12-18T03:57:06;26.33;;;10.65;;
23181;SDS011;11759;51.282;6.642;2022-12-18T04:00:09;24.92;;;11.30;;
23181;SDS011;11759;51.282;6.642;2022-12-18T04:02:54;24.83;;;11.65;;
23181;SDS011;11759;51.282;6.642;2022-12-18T04:05:30;22.83;;;11.35;;
23181;SDS011;11759;51.282;6.642;2022-12-18T04:07:57;21.45;;;10.70;;
23181;SDS011;11759;51.282;6.642;2022-12-18T04:10:24;24.75;;;11.63;;
23181;SDS011;11759;51.282;6.642;2022-12-18T04:12:50;32.58;;;11.35;;
23181;SDS011;11759;51.282;6.642;2022-12-18T04:15:23;23.58;;;10.45;;
23181;SDS011;11759;51.282;6.642;2022-12-18T04:17:50;27.45;;;11.23;;
23181;SDS011;11759;51.282;6.642;2022-12-18T04:20:20;25.60;;;11.00;;
23181;SDS011;11759;51.282;6.642;2022-12-18T04:22:47;27.52;;;11.70;;
23181;SDS011;11759;51.282;6.642;2022-12-18T04:25:13;22.23;;;10.30;;
23181;SDS011;11759;51.282;6.642;2022-12-18T04:27:52;23.52;;;9.95;;
23181;SDS011;11759;51.282;6.642;2022-12-18T04:30:19;33.60;;;11.75;;
23181;SDS011;11759;51.282;6.642;2022-12-18T04:32:45;26.13;;;10.32;;
23181;SDS011;11759;51.282;6.642;2022-12-18T04:35:19;26.38;;;10.20;;
23181;SDS011;11759;51.282;6.642;2022-12-18T04:37:45;27.95;;;11.07;;
23181;SDS011;11759;51.282;6.642;2022-12-18T04:40:12;24.85;;;10.45;;
23181;SDS011;11759;51.282;6.642;2022-12-18T04:42:42;29.30;;;11.43;;
23181;SDS011;11759;51.282;6.642;2022-12-18T04:45:09;26.00;;;10.48;;
23181;SDS011;11759;51.282;6.642;2022-12-18T04:47:36;26.73;;;11.55;;
23181;SDS011;11759;51.282;6.642;2022-12-18T04:50:02;21.63;;;9.98;;
23181;SDS011;11759;51.282;6.642;2022-12-18T04:52:29;20.05;;;9.95;;
23181;SDS011;11759;51.282;6.642;2022-12-18T04:54:55;26.10;;;10.50;;
23181;SDS011;11759;51.282;6.642;2022-12-18T04:57:22;22.77;;;9.38;;
23181;SDS011;11759;51.282;6.642;2022-12-18T04:59:49;26.95;;;10.85;;
23181;SDS011;11759;51.282;6.642;2022-12-18T05:02:15;27.05;;;11.75;;
23181;SDS011;11759;51.282;6.642;2022-12-18T05:04:42;27.75;;;10.20;;
23181;SDS011;11759;51.282;6.642;2022-12-18T05:07:08;27.70;;;9.38;;
23181;SDS011;11759;51.282;6.642;2022-12-18T05:09:35;23.77;;;11.77;;
23181;SDS011;11759;51.282;6.642;2022-12-18T05:12:01;26.55;;;10.93;;
23181;SDS011;11759;51.282;6.642;2022-12-18T05:14:28;24.95;;;11.15;;
23181;SDS011;11759;51.282;6.642;2022-12-18T05:16:55;20.67;;;9.60;;
23181;SDS011;11759;51.282;6.642;2022-12-18T05:21:52;22.65;;;10.85;;
23181;SDS011;11759;51.282;6.642;2022-12-18T05:24:19;19.35;;;9.38;;
23181;SDS011;11759;51.282;6.642;2022-12-18T05:26:45;25.73;;;11.88;;
23181;SDS011;11759;51.282;6.642;2022-12-18T05:29:12;28.08;;;11.27;;
23181;SDS011;11759;51.282;6.642;2022-12-18T05:31:39;24.30;;;10.88;;
23181;SDS011;11759;51.282;6.642;2022-12-18T05:34:08;21.08;;;8.88;;
23181;SDS011;11759;51.282;6.642;2022-12-18T05:36:35;19.80;;;9.20;;
23181;SDS011;11759;51.282;6.642;2022-12-18T05:39:02;23.63;;;10.77;;
23181;SDS011;11759;51.282;6.642;2022-12-18T05:41:29;22.98;;;9.98;;
23181;SDS011;11759;51.282;6.642;2022-12-18T05:43:56;29.92;;;10.45;;
23181;SDS011;11759;51.282;6.642;2022-12-18T05:46:22;27.13;;;10.32;;
23181;SDS011;11759;51.282;6.642;2022-12-18T05:48:50;22.52;;;9.52;;
23181;SDS011;11759;51.282;6.642;2022-12-18T05:51:18;18.15;;;10.38;;
23181;SDS011;11759;51.282;6.642;2022-12-18T05:53:46;16.75;;;8.93;;
23181;SDS011;11759;51.282;6.642;2022-12-18T05:56:14;27.92;;;10.18;;
23181;SDS011;11759;51.282;6.642;2022-12-18T05:58:42;20.40;;;9.85;;
23181;SDS011;11759;51.282;6.642;2022-12-18T06:01:18;23.48;;;10.05;;
23181;SDS011;11759;51.282;6.642;2022-12-18T06:03:47;23.05;;;10.25;;
23181;SDS011;11759;51.282;6.642;2022-12-18T06:08:41;26.17;;;10.35;;
23181;SDS011;11759;51.282;6.642;2022-12-18T06:11:12;22.73;;;9.70;;
23181;SDS011;11759;51.282;6.642;2022-12-18T06:13:38;27.95;;;10.20;;
23181;SDS011;11759;51.282;6.642;2022-12-18T06:16:06;24.10;;;9.32;;
23181;SDS011;11759;51.282;6.642;2022-12-18T06:18:32;22.70;;;9.80;;
23181;SDS011;11759;51.282;6.642;2022-12-18T06:20:59;20.95;;;9.88;;
23181;SDS011;11759;51.282;6.642;2022-12-18T06:23:26;20.25;;;9.60;;
23181;SDS011;11759;51.282;6.642;2022-12-18T06:25:53;21.13;;;8.90;;
23181;SDS011;11759;51.282;6.642;2022-12-18T06:28:19;22.85;;;9.15;;
23181;SDS011;11759;51.282;6.642;2022-12-18T06:30:47;16.75;;;8.48;;
23181;SDS011;11759;51.282;6.642;2022-12-18T06:33:14;29.52;;;11.05;;
23181;SDS011;11759;51.282;6.642;2022-12-18T06:35:42;20.75;;;10.55;;
23181;SDS011;11759;51.282;6.642;2022-12-18T06:38:08;25.17;;;10.45;;
23181;SDS011;11759;51.282;6.642;2022-12-18T06:40:36;21.35;;;10.27;;
23181;SDS011;11759;51.282;6.642;2022-12-18T06:43:05;24.48;;;10.57;;
23181;SDS011;11759;51.282;6.642;2022-12-18T06:45:31;26.90;;;10.60;;
23181;SDS011;11759;51.282;6.642;2022-12-18T06:47:58;29.15;;;10.10;;
23181;SDS011;11759;51.282;6.642;2022-12-18T06:50:25;24.08;;;11.07;;
23181;SDS011;11759;51.282;6.642;2022-12-18T06:52:51;27.15;;;9.45;;
23181;SDS011;11759;51.282;6.642;2022-12-18T06:55:18;18.02;;;8.80;;
23181;SDS011;11759;51.282;6.642;2022-12-18T06:57:44;21.50;;;10.30;;
23181;SDS011;11759;51.282;6.642;2022-12-18T07:00:11;24.83;;;10.60;;
23181;SDS011;11759;51.282;6.642;2022-12-18T07:02:38;19.67;;;9.65;;
23181;SDS011;11759;51.282;6.642;2022-12-18T07:05:05;26.52;;;9.38;;
23181;SDS011;11759;51.282;6.642;2022-12-18T07:07:36;19.08;;;9.18;;
23181;SDS011;11759;51.282;6.642;2022-12-18T07:10:03;21.65;;;9.50;;
23181;SDS011;11759;51.282;6.642;2022-12-18T07:12:30;18.25;;;8.82;;
23181;SDS011;11759;51.282;6.642;2022-12-18T07:14:56;26.20;;;10.23;;
23181;SDS011;11759;51.282;6.642;2022-12-18T07:17:23;23.85;;;9.60;;
23181;SDS011;11759;51.282;6.642;2022-12-18T07:19:49;24.15;;;9.27;;
23181;SDS011;11759;51.282;6.642;2022-12-18T07:22:16;24.15;;;9.57;;
23181;SDS011;11759;51.282;6.642;2022-12-18T07:24:42;17.52;;;9.02;;
23181;SDS011;11759;51.282;6.642;2022-12-18T07:27:09;22.65;;;9.57;;
23181;SDS011;11759;51.282;6.642;2022-12-18T07:29:35;23.27;;;10.35;;
23181;SDS011;11759;51.282;6.642;2022-12-18T07:32:03;18.00;;;8.65;;
23181;SDS011;11759;51.282;6.642;2022-12-18T07:34:30;23.17;;;10.02;;
23181;SDS011;11759;51.282;6.642;2022-12-18T07:36:56;20.08;;;8.82;;
23181;SDS011;11759;51.282;6.642;2022-12-18T07:39:23;24.13;;;10.35;;
23181;SDS011;11759;51.282;6.642;2022-12-18T07:41:49;20.05;;;8.57;;
23181;SDS011;11759;51.282;6.642;2022-12-18T07:44:38;19.92;;;9.63;;
23181;SDS011;11759;51.282;6.642;2022-12-18T07:47:05;17.02;;;7.78;;
23181;SDS011;11759;51.282;6.642;2022-12-18T07:49:37;23.85;;;7.72;;
23181;SDS011;11759;51.282;6.642;2022-12-18T07:52:04;21.73;;;10.93;;
23181;SDS011;11759;51.282;6.642;2022-12-18T07:54:30;21.05;;;10.15;;
23181;SDS011;11759;51.282;6.642;2022-12-18T07:56:57;26.60;;;10.65;;
23181;SDS011;11759;51.282;6.642;2022-12-18T07:59:24;26.75;;;12.43;;
23181;SDS011;11759;51.282;6.642;2022-12-18T08:01:50;21.20;;;8.48;;
23181;SDS011;11759;51.282;6.642;2022-12-18T08:04:17;22.08;;;10.80;;
23181;SDS011;11759;51.282;6.642;2022-12-18T08:06:43;21.38;;;10.57;;
23181;SDS011;11759;51.282;6.642;2022-12-18T08:09:13;20.30;;;9.87;;
23181;SDS011;11759;51.282;6.642;2022-12-18T08:11:40;22.63;;;9.93;;
23181;SDS011;11759;51.282;6.642;2022-12-18T08:14:06;22.40;;;9.02;;
23181;SDS011;11759;51.282;6.642;2022-12-18T08:16:33;23.95;;;10.32;;
23181;SDS011;11759;51.282;6.642;2022-12-18T08:19:00;26.80;;;10.07;;
23181;SDS011;11759;51.282;6.642;2022-12-18T08:21:27;23.52;;;10.25;;
23181;SDS011;11759;51.282;6.642;2022-12-18T08:23:56;21.60;;;8.68;;
23181;SDS011;11759;51.282;6.642;2022-12-18T08:26:24;23.98;;;9.82;;
23181;SDS011;11759;51.282;6.642;2022-12-18T08:28:53;25.75;;;10.15;;
23181;SDS011;11759;51.282;6.642;2022-12-18T08:31:23;23.48;;;9.32;;
23181;SDS011;11759;51.282;6.642;2022-12-18T08:33:50;22.85;;;9.27;;
23181;SDS011;11759;51.282;6.642;2022-12-18T08:36:19;25.40;;;9.50;;
23181;SDS011;11759;51.282;6.642;2022-12-18T08:38:46;22.13;;;10.10;;
23181;SDS011;11759;51.282;6.642;2022-12-18T08:41:14;16.85;;;8.15;;
23181;SDS011;11759;51.282;6.642;2022-12-18T08:43:41;20.45;;;9.48;;
23181;SDS011;11759;51.282;6.642;2022-12-18T08:46:30;21.27;;;8.77;;
23181;SDS011;11759;51.282;6.642;2022-12-18T08:48:59;22.15;;;10.25;;
23181;SDS011;11759;51.282;6.642;2022-12-18T08:51:26;25.38;;;10.23;;
23181;SDS011;11759;51.282;6.642;2022-12-18T08:53:52;19.80;;;8.88;;
23181;SDS011;11759;51.282;6.642;2022-12-18T08:56:19;18.15;;;8.63;;
23181;SDS011;11759;51.282;6.642;2022-12-18T08:58:46;25.10;;;9.55;;
23181;SDS011;11759;51.282;6.642;2022-12-18T09:01:12;21.98;;;10.13;;
23181;SDS011;11759;51.282;6.642;2022-12-18T09:03:39;25.27;;;10.07;;
23181;SDS011;11759;51.282;6.642;2022-12-18T09:06:07;25.45;;;10.40;;
23181;SDS011;11759;51.282;6.642;2022-12-18T09:08:33;26.30;;;10.68;;
23181;SDS011;11759;51.282;6.642;2022-12-18T09:11:00;22.20;;;10.43;;
23181;SDS011;11759;51.282;6.642;2022-12-18T09:13:27;32.15;;;11.05;;
23181;SDS011;11759;51.282;6.642;2022-12-18T09:15:54;25.92;;;9.77;;
23181;SDS011;11759;51.282;6.642;2022-12-18T09:18:21;27.10;;;12.45;;
23181;SDS011;11759;51.282;6.642;2022-12-18T09:20:49;29.63;;;11.05;;
23181;SDS011;11759;51.282;6.642;2022-12-18T09:23:17;28.83;;;10.52;;
23181;SDS011;11759;51.282;6.642;2022-12-18T09:25:44;25.27;;;9.35;;
23181;SDS011;11759;51.282;6.642;2022-12-18T09:28:12;34.88;;;11.05;;
23181;SDS011;11759;51.282;6.642;2022-12-18T09:30:41;27.00;;;11.40;;
23181;SDS011;11759;51.282;6.642;2022-12-18T09:33:09;22.83;;;9.25;;
23181;SDS011;11759;51.282;6.642;2022-12-18T09:35:36;26.50;;;10.40;;
23181;SDS011;11759;51.282;6.642;2022-12-18T09:38:03;26.92;;;10.63;;
23181;SDS011;11759;51.282;6.642;2022-12-18T09:40:34;26.73;;;10.20;;
23181;SDS011;11759;51.282;6.642;2022-12-18T09:43:03;26.25;;;9.70;;
23181;SDS011;11759;51.282;6.642;2022-12-18T09:48:10;24.10;;;8.82;;
23181;SDS011;11759;51.282;6.642;2022-12-18T09:50:42;23.38;;;9.73;;
23181;SDS011;11759;51.282;6.642;2022-12-18T09:53:12;21.95;;;9.55;;
23181;SDS011;11759;51.282;6.642;2022-12-18T09:55:42;20.98;;;8.80;;
23181;SDS011;11759;51.282;6.642;2022-12-18T09:58:20;22.98;;;9.23;;
23181;SDS011;11759;51.282;6.642;2022-12-18T10:00:55;21.17;;;9.63;;
23181;SDS011;11759;51.282;6.642;2022-12-18T10:03:22;24.40;;;9.80;;
23181;SDS011;11759;51.282;6.642;2022-12-18T10:06:23;21.33;;;9.57;;
23181;SDS011;11759;51.282;6.642;2022-12-18T10:08:57;23.25;;;9.77;;
23181;SDS011;11759;51.282;6.642;2022-12-18T10:14:00;24.13;;;10.23;;
23181;SDS011;11759;51.282;6.642;2022-12-18T10:19:33;20.77;;;8.93;;
23181;SDS011;11759;51.282;6.642;2022-12-18T10:27:46;25.60;;;10.30;;
23181;SDS011;11759;51.282;6.642;2022-12-18T10:30:15;26.75;;;11.23;;
23181;SDS011;11759;51.282;6.642;2022-12-18T10:32:42;24.48;;;10.50;;
23181;SDS011;11759;51.282;6.642;2022-12-18T10:35:27;23.27;;;9.45;;
23181;SDS011;11759;51.282;6.642;2022-12-18T10:38:27;22.90;;;9.30;;
23181;SDS011;11759;51.282;6.642;2022-12-18T10:41:22;20.70;;;9.50;;
23181;SDS011;11759;51.282;6.642;2022-12-18T10:46:50;26.50;;;10.52;;
23181;SDS011;11759;51.282;6.642;2022-12-18T10:49:23;27.45;;;10.43;;
23181;SDS011;11759;51.282;6.642;2022-12-18T10:54:52;31.75;;;11.18;;
23181;SDS011;11759;51.282;6.642;2022-12-18T10:57:34;31.90;;;11.10;;
23181;SDS011;11759;51.282;6.642;2022-12-18T11:00:20;25.13;;;10.20;;
23181;SDS011;11759;51.282;6.642;2022-12-18T11:02:47;22.73;;;10.13;;
23181;SDS011;11759;51.282;6.642;2022-12-18T11:05:25;25.92;;;9.77;;
23181;SDS011;11759;51.282;6.642;2022-12-18T11:07:59;21.65;;;10.48;;
23181;SDS011;11759;51.282;6.642;2022-12-18T11:10:33;20.23;;;9.65;;
23181;SDS011;11759;51.282;6.642;2022-12-18T11:13:09;23.70;;;10.73;;
23181;SDS011;11759;51.282;6.642;2022-12-18T11:15:42;26.10;;;10.98;;
23181;SDS011;11759;51.282;6.642;2022-12-18T11:18:26;32.00;;;12.27;;
23181;SDS011;11759;51.282;6.642;2022-12-18T11:20:56;24.95;;;10.15;;
23181;SDS011;11759;51.282;6.642;2022-12-18T11:23:24;24.52;;;9.95;;
23181;SDS011;11759;51.282;6.642;2022-12-18T11:25:52;25.13;;;9.73;;
23181;SDS011;11759;51.282;6.642;2022-12-18T11:31:17;22.92;;;10.43;;
23181;SDS011;11759;51.282;6.642;2022-12-18T11:33:49;25.00;;;11.23;;
23181;SDS011;11759;51.282;6.642;2022-12-18T11:36:44;20.90;;;10.00;;
23181;SDS011;11759;51.282;6.642;2022-12-18T11:39:17;27.00;;;10.93;;
23181;SDS011;11759;51.282;6.642;2022-12-18T11:41:56;25.60;;;11.13;;
23181;SDS011;11759;51.282;6.642;2022-12-18T11:44:50;23.45;;;11.38;;
23181;SDS011;11759;51.282;6.642;2022-12-18T11:47:29;28.70;;;11.45;;
23181;SDS011;11759;51.282;6.642;2022-12-18T11:50:02;20.65;;;9.07;;
23181;SDS011;11759;51.282;6.642;2022-12-18T11:52:36;28.30;;;11.38;;
23181;SDS011;11759;51.282;6.642;2022-12-18T11:55:13;28.20;;;11.70;;
23181;SDS011;11759;51.282;6.642;2022-12-18T12:00:27;26.75;;;11.07;;
23181;SDS011;11759;51.282;6.642;2022-12-18T12:16:26;33.53;;;11.80;;
23181;SDS011;11759;51.282;6.642;2022-12-18T12:19:15;33.42;;;13.23;;
23181;SDS011;11759;51.282;6.642;2022-12-18T12:21:53;33.17;;;13.25;;
23181;SDS011;11759;51.282;6.642;2022-12-18T12:24:30;28.70;;;12.15;;
23181;SDS011;11759;51.282;6.642;2022-12-18T12:27:27;30.35;;;12.10;;
23181;SDS011;11759;51.282;6.642;2022-12-18T12:30:13;30.45;;;11.77;;
23181;SDS011;11759;51.282;6.642;2022-12-18T12:35:43;26.90;;;11.57;;
23181;SDS011;11759;51.282;6.642;2022-12-18T12:38:21;32.65;;;11.95;;
23181;SDS011;11759;51.282;6.642;2022-12-18T12:41:09;30.98;;;13.98;;
23181;SDS011;11759;51.282;6.642;2022-12-18T12:43:57;33.20;;;13.80;;
23181;SDS011;11759;51.282;6.642;2022-12-18T12:46:26;29.02;;;11.90;;
23181;SDS011;11759;51.282;6.642;2022-12-18T12:48:56;26.60;;;12.50;;
23181;SDS011;11759;51.282;6.642;2022-12-18T12:51:37;28.33;;;12.10;;
23181;SDS011;11759;51.282;6.642;2022-12-18T12:54:08;40.80;;;15.77;;
23181;SDS011;11759;51.282;6.642;2022-12-18T12:59:37;33.75;;;14.90;;
23181;SDS011;11759;51.282;6.642;2022-12-18T13:02:20;36.13;;;14.45;;
23181;SDS011;11759;51.282;6.642;2022-12-18T13:05:13;34.33;;;14.20;;
23181;SDS011;11759;51.282;6.642;2022-12-18T13:08:21;27.17;;;10.57;;
23181;SDS011;11759;51.282;6.642;2022-12-18T13:10:49;38.13;;;13.68;;
23181;SDS011;11759;51.282;6.642;2022-12-18T13:13:16;32.38;;;13.50;;
23181;SDS011;11759;51.282;6.642;2022-12-18T13:16:03;32.88;;;15.60;;
23181;SDS011;11759;51.282;6.642;2022-12-18T13:18:31;23.13;;;11.50;;
23181;SDS011;11759;51.282;6.642;2022-12-18T13:23:45;33.65;;;13.95;;
23181;SDS011;11759;51.282;6.642;2022-12-18T13:28:53;32.63;;;13.63;;
23181;SDS011;11759;51.282;6.642;2022-12-18T13:34:15;38.92;;;16.33;;
23181;SDS011;11759;51.282;6.642;2022-12-18T13:36:53;34.55;;;15.13;;
23181;SDS011;11759;51.282;6.642;2022-12-18T13:44:37;33.15;;;15.30;;
23181;SDS011;11759;51.282;6.642;2022-12-18T13:49:52;44.17;;;16.70;;
23181;SDS011;11759;51.282;6.642;2022-12-18T13:52:22;26.63;;;12.80;;
23181;SDS011;11759;51.282;6.642;2022-12-18T13:54:55;33.20;;;13.88;;
23181;SDS011;11759;51.282;6.642;2022-12-18T13:57:37;29.98;;;13.63;;
23181;SDS011;11759;51.282;6.642;2022-12-18T14:00:31;32.70;;;13.55;;
23181;SDS011;11759;51.282;6.642;2022-12-18T14:02:58;36.95;;;15.80;;
23181;SDS011;11759;51.282;6.642;2022-12-18T14:05:27;33.95;;;14.77;;
23181;SDS011;11759;51.282;6.642;2022-12-18T14:07:58;37.30;;;14.85;;
23181;SDS011;11759;51.282;6.642;2022-12-18T14:10:28;35.92;;;16.08;;
23181;SDS011;11759;51.282;6.642;2022-12-18T14:13:15;37.75;;;17.02;;
23181;SDS011;11759;51.282;6.642;2022-12-18T14:15:46;42.55;;;16.92;;
23181;SDS011;11759;51.282;6.642;2022-12-18T14:18:21;32.42;;;14.80;;
23181;SDS011;11759;51.282;6.642;2022-12-18T14:21:01;38.92;;;16.30;;
23181;SDS011;11759;51.282;6.642;2022-12-18T14:23:38;36.85;;;16.60;;
23181;SDS011;11759;51.282;6.642;2022-12-18T14:26:27;38.30;;;15.40;;
23181;SDS011;11759;51.282;6.642;2022-12-18T14:28:57;38.28;;;15.95;;
23181;SDS011;11759;51.282;6.642;2022-12-18T14:31:28;35.50;;;14.13;;
23181;SDS011;11759;51.282;6.642;2022-12-18T14:33:55;42.05;;;17.38;;
23181;SDS011;11759;51.282;6.642;2022-12-18T14:36:26;45.95;;;17.77;;
23181;SDS011;11759;51.282;6.642;2022-12-18T14:38:57;43.03;;;18.08;;
23181;SDS011;11759;51.282;6.642;2022-12-18T14:41:24;34.38;;;14.57;;
23181;SDS011;11759;51.282;6.642;2022-12-18T14:43:52;36.03;;;14.43;;
23181;SDS011;11759;51.282;6.642;2022-12-18T14:48:59;33.75;;;15.65;;
23181;SDS011;11759;51.282;6.642;2022-12-18T14:51:48;50.78;;;16.00;;
23181;SDS011;11759;51.282;6.642;2022-12-18T14:54:19;41.50;;;16.75;;
23181;SDS011;11759;51.282;6.642;2022-12-18T14:56:47;41.83;;;17.25;;
23181;SDS011;11759;51.282;6.642;2022-12-18T15:04:38;32.85;;;14.48;;
23181;SDS011;11759;51.282;6.642;2022-12-18T15:07:14;37.45;;;14.50;;
23181;SDS011;11759;51.282;6.642;2022-12-18T15:10:00;39.60;;;16.20;;
23181;SDS011;11759;51.282;6.642;2022-12-18T15:12:47;41.67;;;15.63;;
23181;SDS011;11759;51.282;6.642;2022-12-18T15:18:00;41.83;;;18.15;;
23181;SDS011;11759;51.282;6.642;2022-12-18T15:20:32;38.75;;;16.58;;
23181;SDS011;11759;51.282;6.642;2022-12-18T15:23:04;42.75;;;17.20;;
23181;SDS011;11759;51.282;6.642;2022-12-18T15:25:32;40.75;;;16.70;;
23181;SDS011;11759;51.282;6.642;2022-12-18T15:28:03;39.50;;;16.80;;
23181;SDS011;11759;51.282;6.642;2022-12-18T15:30:30;49.08;;;18.95;;
23181;SDS011;11759;51.282;6.642;2022-12-18T15:33:17;40.92;;;17.60;;
23181;SDS011;11759;51.282;6.642;2022-12-18T15:35:57;48.13;;;17.58;;
23181;SDS011;11759;51.282;6.642;2022-12-18T15:38:25;39.60;;;17.23;;
23181;SDS011;11759;51.282;6.642;2022-12-18T15:40:52;37.70;;;15.63;;
23181;SDS011;11759;51.282;6.642;2022-12-18T15:43:21;39.70;;;16.42;;
23181;SDS011;11759;51.282;6.642;2022-12-18T15:46:01;41.72;;;18.45;;
23181;SDS011;11759;51.282;6.642;2022-12-18T15:48:29;43.97;;;18.67;;
23181;SDS011;11759;51.282;6.642;2022-12-18T15:50:56;37.25;;;16.55;;
23181;SDS011;11759;51.282;6.642;2022-12-18T15:53:23;50.53;;;19.38;;
23181;SDS011;11759;51.282;6.642;2022-12-18T15:55:58;47.30;;;17.02;;
23181;SDS011;11759;51.282;6.642;2022-12-18T15:58:43;45.88;;;19.52;;
23181;SDS011;11759;51.282;6.642;2022-12-18T16:01:10;46.53;;;16.08;;
23181;SDS011;11759;51.282;6.642;2022-12-18T16:03:37;50.38;;;19.48;;
23181;SDS011;11759;51.282;6.642;2022-12-18T16:06:04;38.92;;;16.05;;
23181;SDS011;11759;51.282;6.642;2022-12-18T16:08:31;38.65;;;16.70;;
23181;SDS011;11759;51.282;6.642;2022-12-18T16:10:58;42.30;;;17.55;;
23181;SDS011;11759;51.282;6.642;2022-12-18T16:13:24;39.30;;;15.52;;
23181;SDS011;11759;51.282;6.642;2022-12-18T16:15:51;50.17;;;20.33;;
23181;SDS011;11759;51.282;6.642;2022-12-18T16:18:17;44.70;;;18.25;;
23181;SDS011;11759;51.282;6.642;2022-12-18T16:20:44;42.10;;;17.48;;
23181;SDS011;11759;51.282;6.642;2022-12-18T16:23:11;48.42;;;17.90;;
23181;SDS011;11759;51.282;6.642;2022-12-18T16:25:38;56.00;;;19.63;;
23181;SDS011;11759;51.282;6.642;2022-12-18T16:28:04;43.00;;;18.38;;
23181;SDS011;11759;51.282;6.642;2022-12-18T16:30:31;44.20;;;17.42;;
23181;SDS011;11759;51.282;6.642;2022-12-18T16:33:03;51.47;;;20.17;;
23181;SDS011;11759;51.282;6.642;2022-12-18T16:35:32;46.28;;;17.90;;